Time;durP1;ratioP1;P1;durP2;ratioP2;P2;SDS_P1;SDS_P2;PMS_P1;PMS_P2;Temp;Humidity;BMP_temperature;BMP_pressure;BME280_temperature;BME280_humidity;BME280_pressure;Samples;Min_cycle;Max_cycle;Signal;HPM_P1;HPM_P2
2022/04/29 00:00:17;;;;;;;5.53;4.80;;;9.50;99.90;;;;;;5052694;28;20167;-69
2022/04/29 00:02:44;;;;;;;6.87;3.90;;;9.40;99.90;;;;;;5047171;28;20563;-69
2022/04/29 00:05:10;;;;;;;7.10;5.23;;;9.40;99.90;;;;;;5027421;28;21069;-69
2022/04/29 00:07:38;;;;;;;9.10;4.70;;;9.30;99.90;;;;;;5048394;28;20450;-69
2022/04/29 00:10:04;;;;;;;8.80;4.63;;;9.30;99.90;;;;;;5050571;28;20685;-69
2022/04/29 00:12:29;;;;;;;4.10;3.70;;;9.20;99.90;;;;;;5053464;28;20455;-69
2022/04/29 00:14:55;;;;;;;8.57;4.40;;;9.20;99.90;;;;;;5053461;28;20175;-69
2022/04/29 00:17:21;;;;;;;5.40;4.50;;;9.10;99.90;;;;;;5053349;28;20589;-69
2022/04/29 00:19:46;;;;;;;6.73;3.90;;;9.10;99.90;;;;;;5051333;28;20583;-69
2022/04/29 00:22:11;;;;;;;5.10;3.80;;;9.10;99.90;;;;;;5053144;28;20516;-70
2022/04/29 00:24:37;;;;;;;6.20;5.10;;;9.10;99.90;;;;;;5053642;28;20167;-69
2022/04/29 00:27:03;;;;;;;6.70;4.03;;;9.00;99.90;;;;;;5055558;28;20224;-69
2022/04/29 00:29:29;;;;;;;7.30;4.67;;;8.90;99.90;;;;;;5051967;28;20179;-69
2022/04/29 00:31:54;;;;;;;4.87;3.80;;;8.90;99.90;;;;;;5051977;28;21067;-69
2022/04/29 00:34:20;;;;;;;6.13;3.77;;;8.90;99.90;;;;;;5052325;28;20546;-70
2022/04/29 00:36:46;;;;;;;6.17;4.17;;;8.80;99.90;;;;;;5050825;28;20162;-69
2022/04/29 00:39:11;;;;;;;6.07;3.70;;;8.80;99.90;;;;;;5052399;28;20399;-68
2022/04/29 00:41:37;;;;;;;4.00;3.60;;;8.80;99.90;;;;;;5052431;28;20202;-68
2022/04/29 00:44:09;;;;;;;5.47;4.23;;;8.70;99.90;;;;;;5052309;28;20232;-69
2022/04/29 00:46:37;;;;;;;5.60;4.47;;;8.60;99.90;;;;;;5052139;28;20419;-68
2022/04/29 00:49:04;;;;;;;4.40;4.00;;;8.60;99.90;;;;;;5051539;28;20531;-68
2022/04/29 00:51:30;;;;;;;5.90;3.90;;;8.60;99.90;;;;;;5051688;28;20506;-68
2022/04/29 00:53:57;;;;;;;4.03;3.17;;;8.50;99.90;;;;;;5051707;28;20902;-68
2022/04/29 00:56:25;;;;;;;4.77;3.93;;;8.40;99.90;;;;;;5051620;28;20406;-69
2022/04/29 00:58:58;;;;;;;3.50;3.20;;;8.40;99.90;;;;;;5051659;28;20414;-68
2022/04/29 01:01:25;;;;;;;4.23;3.77;;;8.30;99.90;;;;;;5051655;28;20483;-68
2022/04/29 01:03:53;;;;;;;11.47;4.17;;;8.30;99.90;;;;;;5052054;28;20818;-68
2022/04/29 01:06:18;;;;;;;6.73;4.60;;;8.30;99.90;;;;;;5051833;28;20404;-69
2022/04/29 01:08:44;;;;;;;5.50;4.30;;;8.20;99.90;;;;;;5052137;28;20496;-68
2022/04/29 01:11:09;;;;;;;3.60;2.60;;;8.20;99.90;;;;;;5055154;28;20268;-68
2022/04/29 01:13:35;;;;;;;7.70;4.33;;;8.20;99.90;;;;;;5055763;28;20590;-68
2022/04/29 01:16:01;;;;;;;4.17;3.47;;;8.20;99.90;;;;;;5054534;28;20172;-68
2022/04/29 01:18:27;;;;;;;4.53;3.70;;;8.20;99.90;;;;;;5056204;28;20652;-70
2022/04/29 01:21:04;;;;;;;3.80;3.20;;;8.10;99.90;;;;;;5055857;28;20615;-67
2022/04/29 01:23:29;;;;;;;4.10;3.40;;;8.10;99.90;;;;;;5058546;28;20405;-68
2022/04/29 01:25:55;;;;;;;6.77;4.00;;;8.00;99.90;;;;;;5058971;28;20409;-68
2022/04/29 01:28:21;;;;;;;7.20;4.40;;;8.10;99.90;;;;;;5060211;28;20233;-68
2022/04/29 01:30:49;;;;;;;5.27;3.30;;;8.00;99.90;;;;;;5060400;28;20214;-68
2022/04/29 01:33:15;;;;;;;4.20;3.77;;;8.10;99.90;;;;;;5055031;28;20405;-68
2022/04/29 01:35:40;;;;;;;6.60;3.80;;;8.20;99.90;;;;;;5055402;28;20899;-68
2022/04/29 01:38:06;;;;;;;4.27;3.90;;;8.30;99.90;;;;;;5055112;28;20449;-68
2022/04/29 01:40:31;;;;;;;7.00;3.43;;;8.30;99.90;;;;;;5055340;28;20209;-68
2022/04/29 01:42:57;;;;;;;3.27;2.93;;;8.30;99.90;;;;;;5054958;28;20535;-68
2022/04/29 01:45:22;;;;;;;3.40;3.10;;;8.20;99.90;;;;;;5055358;28;20174;-68
2022/04/29 01:47:47;;;;;;;8.50;3.60;;;8.30;99.90;;;;;;5054770;28;20221;-68
2022/04/29 01:50:13;;;;;;;6.83;3.40;;;8.30;99.90;;;;;;5057060;28;20336;-68
2022/04/29 01:52:39;;;;;;;6.90;3.00;;;8.30;99.90;;;;;;5056393;28;20171;-69
2022/04/29 01:55:04;;;;;;;4.83;4.37;;;8.30;99.90;;;;;;5056511;28;20221;-68
2022/04/29 01:57:30;;;;;;;6.53;2.70;;;8.20;99.90;;;;;;5056177;28;20182;-69
2022/04/29 01:59:55;;;;;;;4.07;3.67;;;8.20;99.90;;;;;;5055729;28;20186;-68
2022/04/29 02:02:22;;;;;;;4.97;2.93;;;8.20;99.90;;;;;;5055919;28;20195;-68
2022/04/29 02:04:47;;;;;;;6.20;3.67;;;8.10;99.90;;;;;;5056369;28;20179;-68
2022/04/29 02:07:13;;;;;;;4.73;3.00;;;8.10;99.90;;;;;;5055892;28;20934;-68
2022/04/29 02:09:38;;;;;;;5.10;3.77;;;8.10;99.90;;;;;;5055212;28;20182;-68
2022/04/29 02:12:05;;;;;;;4.43;3.80;;;8.10;99.90;;;;;;5057792;28;20198;-68
2022/04/29 02:14:35;;;;;;;5.50;3.97;;;8.00;99.90;;;;;;5058016;28;20173;-68
2022/04/29 02:17:05;;;;;;;5.03;3.27;;;8.00;99.90;;;;;;5054882;28;20414;-68
2022/04/29 02:19:30;;;;;;;4.17;3.63;;;8.00;99.90;;;;;;5055519;28;20414;-68
2022/04/29 02:21:57;;;;;;;4.87;3.10;;;8.00;99.90;;;;;;5054670;28;20502;-68
2022/04/29 02:24:23;;;;;;;3.53;3.10;;;8.00;99.90;;;;;;5054775;28;20462;-68
2022/04/29 02:26:48;;;;;;;3.77;2.73;;;8.00;99.90;;;;;;5054161;28;20867;-68
2022/04/29 02:29:14;;;;;;;7.60;2.63;;;7.90;99.90;;;;;;5054704;28;20226;-69
2022/04/29 02:31:39;;;;;;;3.50;3.20;;;8.00;99.90;;;;;;5053968;28;20215;-68
2022/04/29 02:34:05;;;;;;;4.47;3.23;;;7.90;99.90;;;;;;5054355;28;20577;-68
2022/04/29 02:36:31;;;;;;;11.50;4.23;;;7.90;99.90;;;;;;5054388;28;20167;-68
2022/04/29 02:38:57;;;;;;;3.30;2.80;;;7.80;99.90;;;;;;5054307;28;20213;-68
2022/04/29 02:41:22;;;;;;;4.13;3.00;;;7.70;99.90;;;;;;5053861;28;20426;-68
2022/04/29 02:43:48;;;;;;;4.80;3.90;;;7.70;99.90;;;;;;5054057;28;20711;-68
2022/04/29 02:46:13;;;;;;;4.80;4.10;;;7.60;99.90;;;;;;5053780;28;20174;-67
2022/04/29 02:48:39;;;;;;;4.30;3.40;;;7.60;99.90;;;;;;5053783;28;20175;-68
2022/04/29 02:51:05;;;;;;;6.67;2.77;;;7.70;99.90;;;;;;5053947;28;20245;-68
2022/04/29 02:53:31;;;;;;;4.07;3.67;;;7.60;99.90;;;;;;5053605;28;20163;-68
2022/04/29 02:55:57;;;;;;;3.50;3.20;;;7.60;99.90;;;;;;5053679;28;20159;-68
2022/04/29 02:58:22;;;;;;;3.53;3.13;;;7.60;99.90;;;;;;5053571;28;20500;-68
2022/04/29 03:00:48;;;;;;;6.40;3.77;;;7.70;99.90;;;;;;5053575;28;20199;-68
2022/04/29 03:03:13;;;;;;;6.93;4.40;;;7.60;99.90;;;;;;5053632;28;20167;-69
2022/04/29 03:05:39;;;;;;;5.63;3.30;;;7.60;99.90;;;;;;5053656;28;20174;-68
2022/04/29 03:08:05;;;;;;;4.27;3.80;;;7.40;99.90;;;;;;5053760;28;20178;-68
2022/04/29 03:10:31;;;;;;;4.77;3.50;;;7.40;99.90;;;;;;5054045;28;20465;-69
2022/04/29 03:12:56;;;;;;;5.73;3.60;;;7.50;99.90;;;;;;5036279;28;20923;-68
2022/04/29 03:15:25;;;;;;;3.97;3.60;;;7.50;99.90;;;;;;5054506;28;20254;-69
2022/04/29 03:20:38;;;;;;;3.57;3.10;;;7.40;99.90;;;;;;5054520;28;20935;-69
2022/04/29 03:23:05;;;;;;;4.43;3.30;;;7.60;99.90;;;;;;5054648;28;20402;-68
2022/04/29 03:25:31;;;;;;;5.20;4.13;;;7.60;99.90;;;;;;5054197;28;20413;-69
2022/04/29 03:27:56;;;;;;;4.37;3.10;;;7.60;99.90;;;;;;5054330;28;20402;-69
2022/04/29 03:30:22;;;;;;;4.40;3.70;;;7.60;99.90;;;;;;5054013;28;20951;-69
2022/04/29 03:33:02;;;;;;;2.67;2.47;;;7.70;99.90;;;;;;5053850;28;20178;-68
2022/04/29 03:35:28;;;;;;;3.70;2.77;;;7.60;99.90;;;;;;5034763;28;20170;-69
2022/04/29 03:37:54;;;;;;;3.73;3.33;;;7.60;99.90;;;;;;5053461;28;20761;-68
2022/04/29 03:40:21;;;;;;;5.37;4.00;;;7.50;99.90;;;;;;5053112;28;20421;-69
2022/04/29 03:42:48;;;;;;;5.27;3.00;;;7.50;99.90;;;;;;5053245;28;20167;-69
2022/04/29 03:45:14;;;;;;;4.10;2.63;;;7.40;99.90;;;;;;5052846;28;20401;-68
2022/04/29 03:47:39;;;;;;;4.70;2.87;;;7.40;99.90;;;;;;5052678;28;20415;-69
2022/04/29 03:50:05;;;;;;;3.33;3.03;;;7.30;99.90;;;;;;5052622;28;20677;-68
2022/04/29 03:52:31;;;;;;;3.77;2.80;;;7.30;99.90;;;;;;5052519;28;20183;-69
2022/04/29 03:54:56;;;;;;;3.60;3.27;;;7.30;99.90;;;;;;5052459;28;20405;-67
2022/04/29 03:57:22;;;;;;;4.30;3.67;;;7.30;99.90;;;;;;5052573;28;20170;-68
2022/04/29 03:59:49;;;;;;;4.70;3.30;;;7.40;99.90;;;;;;5052843;28;20163;-69
2022/04/29 04:02:14;;;;;;;10.53;3.10;;;7.40;99.90;;;;;;5055063;28;20187;-67
2022/04/29 04:04:40;;;;;;;3.77;3.20;;;7.50;99.90;;;;;;5052564;28;20409;-68
2022/04/29 04:07:06;;;;;;;5.57;3.10;;;7.50;99.90;;;;;;5052489;28;20588;-68
2022/04/29 04:09:31;;;;;;;3.67;3.23;;;7.50;99.90;;;;;;5052366;28;20171;-68
2022/04/29 04:11:57;;;;;;;3.70;3.23;;;7.60;99.90;;;;;;5052056;28;20221;-68
2022/04/29 04:14:22;;;;;;;2.97;2.67;;;7.70;99.90;;;;;;5052152;28;20525;-68
2022/04/29 04:16:48;;;;;;;4.63;3.43;;;7.70;99.90;;;;;;5052215;28;20170;-68
2022/04/29 04:19:13;;;;;;;5.13;2.73;;;7.80;99.90;;;;;;5052118;28;20174;-68
2022/04/29 04:21:39;;;;;;;3.47;2.83;;;7.90;99.90;;;;;;5051956;28;20453;-68
2022/04/29 04:24:06;;;;;;;4.27;3.03;;;8.00;99.90;;;;;;5052084;28;20229;-69
2022/04/29 04:26:32;;;;;;;4.30;3.30;;;8.10;99.90;;;;;;5052136;28;20641;-68
2022/04/29 04:28:58;;;;;;;4.80;2.87;;;8.20;99.90;;;;;;5052114;28;20448;-68
2022/04/29 04:31:24;;;;;;;2.57;2.37;;;8.30;99.90;;;;;;5052086;28;20268;-69
2022/04/29 04:33:52;;;;;;;4.20;2.97;;;8.40;99.90;;;;;;5052095;28;20652;-69
2022/04/29 04:36:18;;;;;;;3.67;2.73;;;8.50;99.90;;;;;;5051792;28;20398;-69
2022/04/29 04:38:45;;;;;;;2.90;2.63;;;8.70;99.90;;;;;;5051851;28;20927;-69
2022/04/29 04:41:11;;;;;;;7.10;3.00;;;8.80;99.90;;;;;;5052174;28;20274;-68
2022/04/29 04:43:36;;;;;;;3.97;2.93;;;8.90;99.90;;;;;;5052522;28;20413;-69
2022/04/29 04:46:03;;;;;;;3.13;2.70;;;9.00;99.90;;;;;;5055054;28;20412;-71
2022/04/29 04:48:28;;;;;;;2.87;2.27;;;9.20;99.90;;;;;;5055254;28;20183;-70
2022/04/29 04:50:54;;;;;;;3.63;2.80;;;9.30;99.90;;;;;;5055088;28;20461;-69
2022/04/29 04:53:20;;;;;;;2.80;2.40;;;9.40;99.90;;;;;;5055827;28;20284;-69
2022/04/29 04:55:45;;;;;;;5.17;3.07;;;9.60;99.90;;;;;;5052611;28;20167;-69
2022/04/29 04:58:11;;;;;;;5.37;3.20;;;9.70;99.90;;;;;;5051901;28;20570;-69
2022/04/29 05:00:37;;;;;;;4.03;2.57;;;9.90;99.90;;;;;;5051432;28;20195;-69
2022/04/29 05:03:05;;;;;;;7.57;2.53;;;10.00;99.90;;;;;;5051648;28;20179;-69
2022/04/29 05:05:31;;;;;;;3.73;3.07;;;10.10;99.90;;;;;;5051791;28;20410;-69
2022/04/29 05:07:56;;;;;;;3.77;2.37;;;10.00;99.90;;;;;;5052695;28;20405;-68
2022/04/29 05:10:22;;;;;;;3.33;2.87;;;10.10;99.90;;;;;;5051764;28;20513;-69
2022/04/29 05:12:47;;;;;;;2.20;2.10;;;10.20;99.90;;;;;;5051447;28;20171;-69
2022/04/29 05:15:14;;;;;;;6.40;2.47;;;10.30;99.90;;;;;;5051224;28;20228;-69
2022/04/29 05:17:40;;;;;;;3.60;2.40;;;10.60;99.90;;;;;;5051478;28;20560;-69
2022/04/29 05:20:07;;;;;;;2.73;2.40;;;10.80;99.90;;;;;;5033432;28;20510;-69
2022/04/29 05:22:33;;;;;;;3.07;2.77;;;10.90;99.90;;;;;;5033406;28;20444;-68
2022/04/29 05:24:58;;;;;;;3.60;2.37;;;11.10;99.90;;;;;;5051447;28;20405;-70
2022/04/29 05:27:24;;;;;;;2.20;1.93;;;11.10;99.90;;;;;;5051515;28;20178;-69
2022/04/29 05:29:50;;;;;;;4.27;2.53;;;11.20;99.90;;;;;;5051291;28;20171;-69
2022/04/29 05:32:16;;;;;;;2.63;1.90;;;11.30;99.90;;;;;;5051135;28;20673;-69
2022/04/29 05:34:42;;;;;;;3.20;2.27;;;11.40;99.90;;;;;;5050997;28;20171;-69
2022/04/29 05:37:07;;;;;;;3.30;2.60;;;11.40;99.90;;;;;;5051527;28;20927;-69
2022/04/29 05:42:19;;;;;;;2.80;2.60;;;12.00;99.90;;;;;;5051838;28;20683;-69
2022/04/29 05:44:45;;;;;;;3.47;2.13;;;12.20;99.90;;;;;;5051238;28;20759;-69
2022/04/29 05:47:11;;;;;;;3.53;2.47;;;12.70;99.90;;;;;;5052972;28;20408;-69
2022/04/29 05:49:36;;;;;;;3.33;2.40;;;12.80;99.90;;;;;;5054974;28;20425;-69
2022/04/29 05:52:03;;;;;;;4.50;2.37;;;12.50;99.90;;;;;;5035614;28;20195;-70
2022/04/29 05:54:31;;;;;;;2.90;2.20;;;12.50;99.90;;;;;;5051311;28;20255;-69
2022/04/29 05:56:59;;;;;;;3.20;2.90;;;12.80;99.90;;;;;;5053471;28;20402;-70
2022/04/29 05:59:25;;;;;;;2.83;2.20;;;12.90;99.90;;;;;;5036731;28;21048;-68
2022/04/29 06:01:51;;;;;;;2.57;2.37;;;13.10;99.90;;;;;;5054322;28;20522;-70
2022/04/29 06:04:17;;;;;;;5.97;2.83;;;13.30;99.80;;;;;;5047791;28;20420;-68
2022/04/29 06:06:43;;;;;;;4.80;2.20;;;14.10;97.70;;;;;;5039296;28;20173;-68
2022/04/29 06:09:09;;;;;;;3.43;2.20;;;14.80;97.00;;;;;;5038894;28;20417;-70
2022/04/29 06:11:34;;;;;;;2.30;2.10;;;15.20;95.30;;;;;;5038692;28;20208;-69
2022/04/29 06:14:00;;;;;;;2.37;2.07;;;15.70;93.20;;;;;;5034234;28;20414;-69
2022/04/29 06:16:26;;;;;;;2.00;1.80;;;15.40;91.90;;;;;;5016271;28;20164;-69
2022/04/29 06:18:51;;;;;;;3.33;2.33;;;15.90;91.10;;;;;;5034165;28;20168;-69
2022/04/29 06:21:18;;;;;;;2.67;2.27;;;16.40;89.00;;;;;;5038580;28;20448;-69
2022/04/29 06:23:44;;;;;;;6.17;2.10;;;17.00;89.70;;;;;;5036074;28;20169;-69
2022/04/29 06:26:10;;;;;;;2.90;2.20;;;16.90;88.50;;;;;;5053495;28;20914;-68
2022/04/29 06:28:36;;;;;;;3.27;2.40;;;17.20;86.60;;;;;;5054075;28;20412;-69
2022/04/29 06:31:01;;;;;;;2.73;2.23;;;16.80;82.70;;;;;;5053346;28;20270;-68
2022/04/29 06:33:31;;;;;;;3.07;1.93;;;16.40;83.50;;;;;;5053670;28;20427;-69
2022/04/29 06:35:56;;;;;;;3.57;2.20;;;17.00;82.50;;;;;;5053786;28;20540;-69
2022/04/29 06:38:22;;;;;;;3.07;1.87;;;16.70;84.10;;;;;;5043834;28;20423;-68
2022/04/29 06:40:48;;;;;;;1.50;1.40;;;17.80;81.30;;;;;;5036091;28;20211;-69
2022/04/29 06:43:13;;;;;;;1.80;1.43;;;17.90;77.00;;;;;;5053642;28;20174;-69
2022/04/29 06:45:39;;;;;;;3.60;1.70;;;17.70;75.30;;;;;;5053308;28;20171;-69
2022/04/29 06:48:04;;;;;;;3.10;2.00;;;17.80;72.50;;;;;;5053643;28;20620;-69
2022/04/29 06:50:31;;;;;;;2.43;1.40;;;17.10;69.50;;;;;;5053613;28;20219;-69
2022/04/29 06:52:57;;;;;;;2.63;1.50;;;16.90;76.50;;;;;;5053540;28;20244;-69
2022/04/29 06:55:23;;;;;;;2.17;1.80;;;17.90;68.80;;;;;;5053190;28;20841;-68
2022/04/29 06:57:48;;;;;;;1.60;1.30;;;17.90;67.90;;;;;;5053203;28;20177;-69
2022/04/29 07:00:14;;;;;;;3.37;2.13;;;18.10;69.60;;;;;;5053155;28;20175;-68
2022/04/29 07:02:40;;;;;;;3.53;1.70;;;17.90;67.40;;;;;;5053374;28;20177;-68
2022/04/29 07:05:07;;;;;;;2.37;1.70;;;18.20;67.00;;;;;;5053095;28;20406;-68
2022/04/29 07:07:33;;;;;;;2.50;1.40;;;18.40;66.00;;;;;;5034971;28;20201;-68
2022/04/29 07:09:58;;;;;;;2.10;1.73;;;18.80;65.90;;;;;;5035227;28;20421;-69
2022/04/29 07:12:24;;;;;;;4.03;1.53;;;19.20;66.40;;;;;;5052871;28;20801;-69
2022/04/29 07:14:52;;;;;;;2.60;1.70;;;18.80;66.80;;;;;;5052895;28;20240;-69
2022/04/29 07:17:20;;;;;;;2.70;2.30;;;18.90;61.90;;;;;;5053130;28;20190;-68
2022/04/29 07:19:46;;;;;;;2.00;1.17;;;19.00;66.20;;;;;;5053221;28;20785;-68
2022/04/29 07:22:11;;;;;;;1.63;1.20;;;19.10;71.30;;;;;;5052598;28;20422;-68
2022/04/29 07:24:37;;;;;;;2.00;1.70;;;18.30;67.80;;;;;;5052750;28;20172;-69
2022/04/29 07:27:02;;;;;;;3.50;1.50;;;18.70;73.10;;;;;;5052784;28;20250;-68
2022/04/29 07:29:28;;;;;;;1.53;1.30;;;19.20;73.10;;;;;;5052759;28;20168;-68
2022/04/29 07:31:54;;;;;;;1.60;1.27;;;19.50;67.00;;;;;;5052419;28;20266;-69
2022/04/29 07:34:23;;;;;;;1.20;1.00;;;18.50;62.10;;;;;;5054768;28;20399;-69
2022/04/29 07:42:17;;;;;;;2.37;1.30;;;18.60;61.90;;;;;;5032794;28;20943;-69
2022/04/29 07:44:42;;;;;;;1.90;1.70;;;19.90;60.50;;;;;;5032524;28;20417;-69
2022/04/29 07:47:08;;;;;;;3.20;1.03;;;19.50;60.50;;;;;;5032525;28;20177;-69
2022/04/29 07:49:33;;;;;;;2.30;1.73;;;18.20;59.80;;;;;;5032510;28;20544;-69
2022/04/29 07:51:59;;;;;;;1.90;1.20;;;19.10;61.50;;;;;;5032358;28;20209;-69
2022/04/29 07:54:24;;;;;;;2.43;1.30;;;19.40;61.00;;;;;;5032430;28;20181;-69
2022/04/29 07:56:50;;;;;;;1.80;1.67;;;18.30;58.60;;;;;;5032497;28;20172;-69
2022/04/29 07:59:15;;;;;;;1.63;1.33;;;18.60;61.90;;;;;;5042013;28;20170;-69
2022/04/29 08:01:43;;;;;;;3.73;1.53;;;19.70;59.40;;;;;;5052602;28;20191;-69
2022/04/29 08:04:11;;;;;;;2.03;1.23;;;19.60;59.70;;;;;;5052833;28;20177;-71
2022/04/29 08:06:36;;;;;;;2.13;1.50;;;19.30;58.50;;;;;;5052956;28;20978;-69
2022/04/29 08:09:01;;;;;;;1.37;1.23;;;18.00;58.70;;;;;;5037120;28;20446;-69
2022/04/29 08:11:27;;;;;;;3.00;1.87;;;19.00;59.70;;;;;;5054569;28;20204;-69
2022/04/29 08:13:53;;;;;;;2.40;1.77;;;19.20;59.80;;;;;;5056689;28;20197;-70
2022/04/29 08:16:18;;;;;;;2.10;1.70;;;19.10;59.90;;;;;;5054948;28;20180;-68
2022/04/29 08:18:46;;;;;;;2.93;1.73;;;20.00;59.50;;;;;;5051088;28;20408;-69
2022/04/29 08:21:11;;;;;;;2.67;2.13;;;20.00;60.60;;;;;;5051531;28;20607;-69
2022/04/29 08:23:37;;;;;;;4.80;2.47;;;20.00;56.80;;;;;;5051605;28;20444;-69
2022/04/29 08:26:02;;;;;;;6.10;4.23;;;20.60;55.60;;;;;;5052122;28;20193;-69
2022/04/29 08:28:28;;;;;;;2.10;1.63;;;19.90;56.40;;;;;;5052467;28;20171;-69
2022/04/29 08:30:54;;;;;;;2.77;1.47;;;20.00;58.30;;;;;;5052549;28;20694;-71
2022/04/29 08:33:19;;;;;;;1.40;1.20;;;19.80;56.20;;;;;;5052080;28;20447;-70
2022/04/29 08:35:45;;;;;;;2.40;1.77;;;19.70;55.30;;;;;;5051805;28;20178;-70
2022/04/29 08:38:11;;;;;;;3.90;1.80;;;19.60;56.30;;;;;;5051895;28;20167;-70
2022/04/29 08:40:45;;;;;;;2.00;1.63;;;19.50;57.20;;;;;;5052405;28;20197;-69
2022/04/29 08:43:12;;;;;;;2.40;1.70;;;18.90;57.20;;;;;;5051936;28;20184;-69
2022/04/29 08:45:38;;;;;;;3.10;1.77;;;19.40;58.80;;;;;;5052005;28;20407;-69
2022/04/29 08:48:04;;;;;;;1.80;1.53;;;20.30;57.50;;;;;;5051923;28;20785;-69
2022/04/29 08:50:31;;;;;;;3.20;1.67;;;20.10;58.70;;;;;;5051493;28;20561;-69
2022/04/29 08:52:57;;;;;;;2.17;1.97;;;20.50;56.70;;;;;;5051514;28;20404;-69
2022/04/29 09:00:58;;;;;;;3.57;2.07;;;20.20;58.50;;;;;;5050939;28;20532;-68
2022/04/29 09:03:23;;;;;;;2.77;1.93;;;19.50;56.50;;;;;;5051163;28;20832;-69
2022/04/29 09:05:50;;;;;;;1.67;1.43;;;19.80;56.30;;;;;;5051288;28;20468;-69
2022/04/29 09:08:17;;;;;;;2.20;2.00;;;20.50;56.60;;;;;;5051426;28;20224;-69
2022/04/29 09:10:57;;;;;;;1.90;1.50;;;19.90;57.00;;;;;;5033163;28;20879;-70
2022/04/29 09:13:25;;;;;;;2.57;1.90;;;20.10;55.90;;;;;;5048282;28;20479;-69
2022/04/29 09:15:58;;;;;;;2.27;1.70;;;20.00;55.20;;;;;;5051434;28;20511;-69
2022/04/29 09:18:37;;;;;;;2.47;1.80;;;19.80;57.60;;;;;;5051856;28;20439;-69
2022/04/29 09:21:07;;;;;;;2.43;1.80;;;19.70;57.60;;;;;;5038718;28;20433;-69
2022/04/29 09:23:35;;;;;;;2.80;2.50;;;19.80;59.00;;;;;;5033283;28;20933;-69
2022/04/29 09:26:03;;;;;;;2.37;2.17;;;20.10;57.80;;;;;;5042824;28;20413;-70
2022/04/29 09:28:29;;;;;;;4.27;2.07;;;20.40;57.60;;;;;;5051500;28;20405;-70
2022/04/29 09:30:59;;;;;;;2.77;2.20;;;20.40;57.60;;;;;;5053528;28;20454;-70
2022/04/29 09:33:26;;;;;;;5.83;2.60;;;20.10;57.90;;;;;;5054928;28;20178;-70
2022/04/29 09:35:52;;;;;;;2.27;2.07;;;20.60;60.80;;;;;;5054907;28;20406;-69
2022/04/29 09:41:03;;;;;;;3.90;2.77;;;19.60;59.30;;;;;;5053843;28;20448;-69
2022/04/29 09:43:42;;;;;;;5.00;2.27;;;19.80;63.40;;;;;;5017124;28;20411;-70
2022/04/29 09:46:16;;;;;;;3.07;1.90;;;20.40;60.90;;;;;;5052562;28;20461;-69
2022/04/29 09:49:06;;;;;;;3.33;1.90;;;18.60;57.10;;;;;;5051673;28;20443;-69
2022/04/29 09:51:38;;;;;;;6.90;4.80;;;18.80;62.50;;;;;;5035018;28;20460;-70
2022/04/29 09:54:09;;;;;;;3.40;1.87;;;20.20;62.20;;;;;;5054403;28;20406;-69
2022/04/29 09:56:34;;;;;;;2.90;2.50;;;19.20;56.50;;;;;;5044029;28;20433;-69
2022/04/29 09:59:00;;;;;;;5.53;2.27;;;18.70;60.30;;;;;;5035057;28;20534;-69
2022/04/29 10:01:26;;;;;;;5.40;2.27;;;19.40;60.40;;;;;;5033231;28;20206;-69
2022/04/29 10:03:51;;;;;;;3.03;1.90;;;18.60;58.40;;;;;;5033869;28;20349;-69
2022/04/29 10:06:20;;;;;;;8.53;5.00;;;18.20;61.70;;;;;;5033121;28;20177;-70
2022/04/29 10:08:49;;;;;;;4.30;3.17;;;17.80;60.30;;;;;;5034638;28;20208;-69
2022/04/29 10:11:17;;;;;;;4.57;3.10;;;18.60;59.20;;;;;;5034397;28;20454;-70
2022/04/29 10:13:45;;;;;;;3.80;2.77;;;19.50;57.10;;;;;;5034600;28;20407;-70
2022/04/29 10:16:11;;;;;;;3.20;2.40;;;19.20;56.50;;;;;;5034741;28;20788;-69
2022/04/29 10:21:25;;;;;;;3.10;2.60;;;18.70;57.50;;;;;;5034222;28;20425;-69
2022/04/29 10:23:51;;;;;;;10.13;4.90;;;18.40;57.50;;;;;;5034381;28;20449;-69
2022/04/29 10:26:21;;;;;;;5.50;3.90;;;18.70;58.20;;;;;;5033976;28;20429;-69
2022/04/29 10:28:47;;;;;;;6.43;4.27;;;18.60;57.60;;;;;;5034109;28;20179;-69
2022/04/29 10:31:19;;;;;;;2.93;2.10;;;18.20;56.90;;;;;;5061111;22;20486;-72
2022/04/29 10:33:45;;;;;;;3.57;2.50;;;17.90;56.90;;;;;;5032683;28;20806;-72
2022/04/29 10:36:14;;;;;;;3.07;2.77;;;17.90;58.20;;;;;;5033483;28;20542;-72
2022/04/29 10:38:41;;;;;;;3.30;2.80;;;18.30;56.90;;;;;;5033476;28;20398;-71
2022/04/29 10:41:07;;;;;;;2.97;2.60;;;17.90;58.10;;;;;;5033127;28;20400;-71
2022/04/29 10:43:35;;;;;;;4.20;2.87;;;18.40;59.00;;;;;;5033424;28;20437;-71
2022/04/29 10:46:04;;;;;;;6.30;2.70;;;18.50;58.10;;;;;;5033592;28;20194;-71
2022/04/29 10:48:35;;;;;;;3.47;2.47;;;18.50;57.00;;;;;;5033305;28;20402;-72
2022/04/29 10:51:14;;;;;;;2.83;2.53;;;18.50;57.80;;;;;;5031771;28;20459;-71
2022/04/29 10:53:41;;;;;;;6.53;2.60;;;18.30;58.40;;;;;;5033087;28;20396;-71
2022/04/29 10:56:31;;;;;;;6.40;2.70;;;18.30;59.60;;;;;;5033078;28;20485;-71
2022/04/29 10:59:12;;;;;;;4.80;3.13;;;18.90;60.60;;;;;;5033087;28;20434;-71
2022/04/29 11:01:39;;;;;;;2.47;2.27;;;18.60;58.00;;;;;;5032903;28;20840;-71
2022/04/29 11:04:06;;;;;;;3.87;2.70;;;18.90;59.80;;;;;;5032921;28;20406;-71
2022/04/29 11:06:35;;;;;;;4.50;2.30;;;18.90;57.60;;;;;;5033165;28;20478;-71
2022/04/29 11:09:01;;;;;;;3.13;2.80;;;18.80;57.30;;;;;;5033215;28;20773;-72
2022/04/29 11:11:43;;;;;;;4.90;2.63;;;19.20;58.10;;;;;;5032980;28;20453;-72
2022/04/29 11:14:10;;;;;;;2.83;2.40;;;19.20;57.70;;;;;;5015360;28;20177;-72
2022/04/29 11:16:58;;;;;;;2.60;2.40;;;19.60;58.00;;;;;;5032928;28;20775;-73
2022/04/29 11:19:27;;;;;;;2.40;1.87;;;19.50;57.70;;;;;;5033060;28;20454;-72
2022/04/29 11:24:46;;;;;;;4.13;2.67;;;19.30;58.40;;;;;;5033096;28;20448;-71
2022/04/29 11:27:12;;;;;;;3.77;2.77;;;19.10;57.10;;;;;;5032781;28;20497;-72
2022/04/29 11:29:44;;;;;;;2.60;2.40;;;18.30;57.80;;;;;;5032726;28;20416;-71
2022/04/29 11:32:10;;;;;;;3.57;2.33;;;18.90;58.80;;;;;;5032439;28;20475;-72
2022/04/29 11:34:49;;;;;;;2.63;2.40;;;19.00;57.30;;;;;;5032700;28;20402;-72
2022/04/29 11:37:15;;;;;;;3.33;2.33;;;18.90;56.00;;;;;;5032725;28;20194;-72
2022/04/29 11:39:40;;;;;;;2.00;1.80;;;18.80;57.50;;;;;;5014832;28;20437;-71
2022/04/29 11:42:08;;;;;;;3.07;2.77;;;18.80;56.90;;;;;;5032392;28;20618;-71
2022/04/29 11:44:34;;;;;;;2.60;2.23;;;19.00;56.60;;;;;;5032378;28;20167;-72
2022/04/29 11:47:00;;;;;;;3.10;2.80;;;19.10;57.70;;;;;;5032567;28;20777;-72
2022/04/29 11:49:32;;;;;;;3.93;2.33;;;19.50;57.50;;;;;;5032258;28;20411;-72
2022/04/29 11:52:16;;;;;;;2.53;2.33;;;19.30;56.80;;;;;;5032074;28;20457;-72
2022/04/29 11:54:52;;;;;;;2.70;2.10;;;19.40;57.80;;;;;;5031162;28;20398;-71
2022/04/29 11:57:18;;;;;;;1.90;1.80;;;18.50;56.20;;;;;;5031978;28;20493;-71
2022/04/29 11:59:45;;;;;;;9.77;2.80;;;19.00;57.10;;;;;;5032098;28;20584;-72
2022/04/29 12:02:11;;;;;;;4.60;3.00;;;19.40;57.10;;;;;;5031919;28;20195;-71
2022/04/29 12:04:37;;;;;;;3.37;2.10;;;19.40;58.20;;;;;;5032271;28;20410;-72
2022/04/29 12:07:05;;;;;;;3.00;2.50;;;19.40;57.20;;;;;;5032142;28;20477;-73
2022/04/29 12:09:34;;;;;;;3.17;2.27;;;19.80;55.90;;;;;;5032069;28;20676;-73
2022/04/29 12:12:00;;;;;;;4.07;2.80;;;19.90;54.80;;;;;;5031889;28;20898;-73
2022/04/29 12:14:26;;;;;;;3.43;2.67;;;19.80;54.80;;;;;;5032562;28;20758;-73
2022/04/29 12:16:52;;;;;;;3.27;1.93;;;19.80;55.30;;;;;;5031979;28;20490;-72
2022/04/29 12:19:19;;;;;;;2.97;2.33;;;19.80;55.80;;;;;;5031668;28;20533;-72
2022/04/29 12:21:55;;;;;;;7.80;2.57;;;20.00;55.90;;;;;;5031687;28;20631;-72
2022/04/29 12:24:21;;;;;;;5.33;3.10;;;19.60;52.90;;;;;;5031836;28;20491;-73
2022/04/29 12:27:07;;;;;;;3.00;2.40;;;19.60;52.80;;;;;;5031673;28;20558;-72
2022/04/29 12:29:33;;;;;;;5.20;2.43;;;19.90;54.50;;;;;;5031382;28;20406;-72
2022/04/29 12:35:10;;;;;;;3.03;2.73;;;19.10;55.70;;;;;;5031335;28;20950;-72
2022/04/29 12:37:36;;;;;;;3.40;2.60;;;18.50;54.70;;;;;;5031224;28;20421;-71
2022/04/29 12:40:08;;;;;;;3.47;2.63;;;19.10;54.40;;;;;;5031509;28;20411;-71
2022/04/29 12:42:34;;;;;;;2.50;2.30;;;19.40;54.10;;;;;;5031223;28;20206;-72
2022/04/29 12:45:07;;;;;;;2.40;2.20;;;19.80;53.20;;;;;;5031200;28;20412;-73
2022/04/29 12:47:35;;;;;;;5.37;2.57;;;19.70;52.20;;;;;;5031333;28;20493;-73
2022/04/29 12:50:34;;;;;;;3.13;2.40;;;19.30;54.40;;;;;;5013289;28;20427;-73
2022/04/29 12:53:17;;;;;;;3.30;2.47;;;19.20;53.60;;;;;;5031501;28;20944;-73
2022/04/29 12:55:42;;;;;;;3.70;2.67;;;19.20;53.00;;;;;;5031323;28;20509;-73
2022/04/29 12:58:12;;;;;;;2.40;2.20;;;19.30;53.40;;;;;;5031293;28;20555;-73
2022/04/29 13:00:39;;;;;;;4.63;2.30;;;19.60;53.20;;;;;;5031247;28;20189;-73
2022/04/29 13:03:26;;;;;;;2.77;2.30;;;19.30;52.40;;;;;;5031058;28;20434;-74
2022/04/29 13:05:52;;;;;;;2.53;2.30;;;19.40;53.40;;;;;;5033466;28;20557;-73
2022/04/29 13:08:18;;;;;;;2.50;2.30;;;20.00;54.70;;;;;;5035125;28;20415;-73
2022/04/29 13:10:46;;;;;;;5.60;2.20;;;20.20;54.50;;;;;;5034985;28;20519;-73
2022/04/29 13:13:13;;;;;;;4.40;2.63;;;20.20;53.70;;;;;;5034862;28;20207;-73
2022/04/29 13:15:41;;;;;;;4.77;4.27;;;19.90;52.40;;;;;;5035445;28;20816;-73
2022/04/29 13:18:07;;;;;;;3.13;2.83;;;19.90;53.70;;;;;;5035079;28;20487;-73